Time,TemperatureF,DewpointF,PressureIn,WindDirection,WindDirectionDegrees,WindSpeedMPH,WindSpeedGustMPH,Humidity,HourlyPrecipIn,Conditions,Clouds,dailyrainin,SoftwareType,DateUTC
2013-01-02 00:00:00,31.6,27.3,29.98,NW,320,0.0,0.0,84,0.00,,SKC,0.14,VWS V14.01,2013-01-02 05:00:00,
2013-01-02 00:02:00,31.6,27.3,29.99,NW,320,0.0,0.0,84,0.00,,SKC,0.14,VWS V14.01,2013-01-02 05:02:00,
2013-01-02 00:07:00,31.6,27.3,29.99,NW,320,0.0,0.0,84,0.00,,SKC,0.14,VWS V14.01,2013-01-02 05:07:00,
2013-01-02 00:12:00,31.5,27.5,29.99,NW,320,0.0,0.0,85,0.00,,SKC,0.00,VWS V14.01,2013-01-02 05:12:00,
2013-01-02 00:17:00,31.6,27.3,29.99,NW,320,0.0,0.0,84,0.00,,SKC,0.00,VWS V14.01,2013-01-02 05:17:00,
2013-01-02 00:22:00,31.5,27.5,29.99,NW,320,0.0,0.0,85,0.00,,SKC,0.00,VWS V14.01,2013-01-02 05:22:00,
2013-01-02 00:27:00,31.5,27.5,29.99,NW,320,0.0,0.0,85,0.00,,SKC,0.00,VWS V14.01,2013-01-02 05:27:00,
2013-01-02 00:32:00,31.5,27.5,30.00,NW,320,0.0,0.0,85,0.00,,SKC,0.00,VWS V14.01,2013-01-02 05:32:00,
2013-01-02 00:37:00,31.5,27.2,29.99,NW,320,0.0,0.0,84,0.00,,SKC,0.00,VWS V14.01,2013-01-02 05:37:00,
2013-01-02 00:42:00,31.5,27.2,29.98,NW,320,0.0,0.0,84,0.00,,SKC,0.00,VWS V14.01,2013-01-02 05:42:00,
2013-01-02 00:47:00,31.5,27.2,29.98,NNW,329,0.0,2.0,84,0.00,,SKC,0.00,VWS V14.01,2013-01-02 05:47:00,
2013-01-02 00:51:00,31.5,27.2,29.99,North,350,0.0,0.0,84,0.00,,SKC,0.00,VWS V14.01,2013-01-02 05:51:00,
2013-01-02 00:56:00,31.5,27.2,29.98,North,350,0.0,0.0,84,0.00,,SKC,0.00,VWS V14.01,2013-01-02 05:56:00,
2013-01-02 01:01:00,31.5,27.2,29.98,North,355,0.0,0.0,84,0.00,,SKC,0.00,VWS V14.01,2013-01-02 06:01:00,
2013-01-02 01:06:00,31.5,27.2,29.99,North,355,0.0,0.0,84,0.00,,SKC,0.00,VWS V14.01,2013-01-02 06:06:00,
2013-01-02 01:11:00,31.4,27.1,29.99,North,360,4.0,4.0,84,0.00,,SKC,0.00,VWS V14.01,2013-01-02 06:11:00,
2013-01-02 01:16:00,31.4,27.1,29.99,ENE,58,2.0,2.0,84,0.00,,SKC,0.00,VWS V14.01,2013-01-02 06:16:00,
2013-01-02 01:21:00,31.3,27.0,29.99,ENE,58,0.0,0.0,84,0.00,,SKC,0.00,VWS V14.01,2013-01-02 06:21:00,
2013-01-02 01:26:00,31.3,27.0,29.99,ENE,59,1.0,2.0,84,0.00,,SKC,0.00,VWS V14.01,2013-01-02 06:26:00,
2013-01-02 01:31:00,31.2,26.9,30.00,ENE,59,0.0,0.0,84,0.00,,SKC,0.00,VWS V14.01,2013-01-02 06:31:00,
2013-01-02 01:36:00,31.2,26.9,30.00,ENE,57,0.0,0.0,84,0.00,,SKC,0.00,VWS V14.01,2013-01-02 06:36:00,
2013-01-02 01:41:00,31.1,26.8,29.99,ENE,57,0.0,1.0,84,0.00,,SKC,0.00,VWS V14.01,2013-01-02 06:41:00,
2013-01-02 01:46:00,31.0,26.7,29.99,ENE,57,0.0,0.0,84,0.00,,SKC,0.00,VWS V14.01,2013-01-02 06:46:00,
2013-01-02 01:51:00,31.0,26.7,29.99,ENE,57,0.0,0.0,84,0.00,,SKC,0.00,VWS V14.01,2013-01-02 06:51:00,
2013-01-02 01:56:00,31.0,26.7,29.99,ENE,57,0.0,0.0,84,0.00,,SKC,0.00,VWS V14.01,2013-01-02 06:56:00,
2013-01-02 02:01:00,31.0,26.7,30.00,ENE,57,0.0,0.0,84,0.00,,SKC,0.00,VWS V14.01,2013-01-02 07:01:00,
2013-01-02 02:06:00,30.9,26.6,29.99,ENE,57,0.0,0.0,84,0.00,,SKC,0.00,VWS V14.01,2013-01-02 07:06:00,
2013-01-02 02:11:00,30.9,26.6,29.98,ENE,57,0.0,0.0,84,0.00,,SKC,0.00,VWS V14.01,2013-01-02 07:11:00,
2013-01-02 02:16:00,30.9,26.9,30.00,ENE,57,0.0,0.0,85,0.00,,SKC,0.00,VWS V14.01,2013-01-02 07:16:00,
2013-01-02 02:21:00,30.8,26.8,29.99,ENE,57,0.0,0.0,85,0.00,,SKC,0.00,VWS V14.01,2013-01-02 07:21:00,
2013-01-02 02:26:00,30.8,26.5,30.00,ENE,57,0.0,0.0,84,0.00,,SKC,0.00,VWS V14.01,2013-01-02 07:26:00,
2013-01-02 02:31:00,30.8,26.5,30.00,ENE,57,0.0,0.0,84,0.00,,SKC,0.00,VWS V14.01,2013-01-02 07:31:00,
2013-01-02 02:36:00,30.7,26.5,29.99,ENE,57,0.0,0.0,84,0.00,,SKC,0.00,VWS V14.01,2013-01-02 07:36:00,
2013-01-02 02:41:00,30.7,26.5,30.00,ENE,57,0.0,0.0,84,0.00,,SKC,0.00,VWS V14.01,2013-01-02 07:41:00,
2013-01-02 02:46:00,30.7,26.5,30.00,ENE,57,0.0,0.0,84,0.00,,SKC,0.00,VWS V14.01,2013-01-02 07:46:00,
2013-01-02 02:51:00,30.7,26.5,29.99,ENE,57,0.0,0.0,84,0.00,,SKC,0.00,VWS V14.01,2013-01-02 07:51:00,
2013-01-02 02:56:00,30.7,26.5,29.99,ENE,57,0.0,0.0,84,0.00,,SKC,0.00,VWS V14.01,2013-01-02 07:56:00,
2013-01-02 03:01:00,30.7,26.5,29.99,ENE,57,0.0,0.0,84,0.00,,SKC,0.00,VWS V14.01,2013-01-02 08:01:00,
2013-01-02 03:06:00,30.6,26.4,29.99,ENE,57,0.0,0.0,84,0.00,,SKC,0.00,VWS V14.01,2013-01-02 08:06:00,
2013-01-02 03:11:00,30.6,26.4,29.99,ENE,57,0.0,0.0,84,0.00,,SKC,0.00,VWS V14.01,2013-01-02 08:11:00,
2013-01-02 03:16:00,30.6,26.4,29.99,ENE,57,0.0,0.0,84,0.00,,SKC,0.00,VWS V14.01,2013-01-02 08:16:00,
2013-01-02 03:21:00,30.6,26.4,29.99,ENE,57,0.0,0.0,84,0.00,,SKC,0.00,VWS V14.01,2013-01-02 08:21:00,
2013-01-02 03:26:00,30.6,26.4,29.98,ENE,57,0.0,0.0,84,0.00,,SKC,0.00,VWS V14.01,2013-01-02 08:26:00,
2013-01-02 03:31:00,30.5,26.2,29.99,ENE,57,0.0,0.0,84,0.00,,SKC,0.00,VWS V14.01,2013-01-02 08:31:00,
2013-01-02 03:36:00,30.5,26.2,30.00,ENE,57,0.0,0.0,84,0.00,,SKC,0.00,VWS V14.01,2013-01-02 08:36:00,
2013-01-02 03:41:00,30.5,26.2,29.99,ENE,57,0.0,0.0,84,0.00,,SKC,0.00,VWS V14.01,2013-01-02 08:41:00,
2013-01-02 03:46:00,30.4,25.9,30.00,ENE,57,0.0,0.0,83,0.00,,SKC,0.00,VWS V14.01,2013-01-02 08:46:00,
2013-01-02 03:51:00,30.4,25.9,30.00,ENE,57,0.0,0.0,83,0.00,,SKC,0.00,VWS V14.01,2013-01-02 08:51:00,
2013-01-02 03:56:00,30.3,25.8,30.00,ENE,57,0.0,0.0,83,0.00,,SKC,0.00,VWS V14.01,2013-01-02 08:56:00,
2013-01-02 04:01:00,30.2,25.4,30.00,ENE,57,0.0,0.0,82,0.00,,SKC,0.00,VWS V14.01,2013-01-02 09:01:00,
2013-01-02 04:06:00,30.1,25.3,30.00,ENE,57,0.0,0.0,82,0.00,,SKC,0.00,VWS V14.01,2013-01-02 09:06:00,
2013-01-02 04:11:00,30.1,25.3,30.00,ENE,57,0.0,0.0,82,0.00,,SKC,0.00,VWS V14.01,2013-01-02 09:11:00,
2013-01-02 04:16:00,30.0,24.9,30.00,ENE,57,0.0,0.0,81,0.00,,SKC,0.00,VWS V14.01,2013-01-02 09:16:00,
2013-01-02 04:21:00,30.0,24.9,30.00,ENE,57,0.0,0.0,81,0.00,,SKC,0.00,VWS V14.01,2013-01-02 09:21:00,
2013-01-02 04:26:00,29.9,24.8,30.00,NE,46,0.0,0.0,81,0.00,,SKC,0.00,VWS V14.01,2013-01-02 09:26:00,
2013-01-02 04:31:00,29.8,24.7,30.00,NE,46,0.0,0.0,81,0.00,,SKC,0.00,VWS V14.01,2013-01-02 09:31:00,
2013-01-02 04:36:00,29.7,24.9,30.00,NE,46,0.0,0.0,82,0.00,,SKC,0.00,VWS V14.01,2013-01-02 09:36:00,
2013-01-02 04:41:00,29.7,24.9,30.00,NE,47,0.0,0.0,82,0.00,,SKC,0.00,VWS V14.01,2013-01-02 09:41:00,
2013-01-02 04:46:00,29.6,24.5,30.01,NNE,15,0.0,1.0,81,0.00,,SKC,0.00,VWS V14.01,2013-01-02 09:46:00,
2013-01-02 04:51:00,29.5,24.4,30.00,NNE,17,2.0,2.0,81,0.00,,SKC,0.00,VWS V14.01,2013-01-02 09:51:00,
2013-01-02 04:56:00,29.4,24.3,30.00,NE,42,4.0,4.0,81,0.00,,SKC,0.00,VWS V14.01,2013-01-02 09:56:00,
2013-01-02 05:01:00,29.4,24.3,30.00,NE,43,0.0,0.0,81,0.00,,SKC,0.00,VWS V14.01,2013-01-02 10:01:00,
2013-01-02 05:06:00,29.3,24.2,30.00,NE,44,0.0,1.0,81,0.00,,SKC,0.00,VWS V14.01,2013-01-02 10:06:00,
2013-01-02 05:11:00,29.3,24.2,30.00,NE,51,0.0,0.0,81,0.00,,SKC,0.00,VWS V14.01,2013-01-02 10:11:00,
2013-01-02 05:16:00,29.2,24.1,30.01,NE,44,3.0,4.0,81,0.00,,SKC,0.00,VWS V14.01,2013-01-02 10:16:00,
2013-01-02 05:21:00,29.2,24.1,30.02,NE,54,0.0,0.0,81,0.00,,SKC,0.00,VWS V14.01,2013-01-02 10:21:00,
2013-01-02 05:26:00,29.1,24.0,30.02,NNE,13,4.0,5.0,81,0.00,,SKC,0.00,VWS V14.01,2013-01-02 10:26:00,
2013-01-02 05:31:00,29.1,24.0,30.02,NE,35,1.0,1.0,81,0.00,,SKC,0.00,VWS V14.01,2013-01-02 10:31:00,
2013-01-02 05:36:00,29.1,24.0,30.02,NNE,26,0.0,0.0,81,0.00,,SKC,0.00,VWS V14.01,2013-01-02 10:36:00,
2013-01-02 05:41:00,29.0,23.9,30.02,NNE,27,0.0,0.0,81,0.00,,SKC,0.00,VWS V14.01,2013-01-02 10:41:00,
2013-01-02 05:46:00,29.0,23.9,30.03,NNE,19,5.0,5.0,81,0.00,,SKC,0.00,VWS V14.01,2013-01-02 10:46:00,
2013-01-02 05:51:00,29.0,23.6,30.02,NNE,28,0.0,1.0,80,0.00,,SKC,0.00,VWS V14.01,2013-01-02 10:51:00,
2013-01-02 05:56:00,29.0,23.6,30.03,NNE,30,0.0,0.0,80,0.00,,SKC,0.00,VWS V14.01,2013-01-02 10:56:00,
2013-01-02 06:01:00,28.9,23.5,30.03,NNE,30,0.0,1.0,80,0.00,,SKC,0.00,VWS V14.01,2013-01-02 11:01:00,
2013-01-02 06:06:00,28.8,23.1,30.03,North,360,0.0,0.0,79,0.00,,SKC,0.00,VWS V14.01,2013-01-02 11:06:00,
2013-01-02 06:11:00,28.8,23.1,30.03,NNE,14,0.0,0.0,79,0.00,,SKC,0.00,VWS V14.01,2013-01-02 11:11:00,
2013-01-02 06:16:00,28.7,23.0,30.04,North,360,0.0,0.0,79,0.00,,SKC,0.00,VWS V14.01,2013-01-02 11:16:00,
2013-01-02 06:21:00,28.6,22.9,30.04,North,360,0.0,0.0,79,0.00,,SKC,0.00,VWS V14.01,2013-01-02 11:21:00,
2013-01-02 06:26:00,28.5,22.8,30.04,North,5,6.0,6.0,79,0.00,,SKC,0.00,VWS V14.01,2013-01-02 11:26:00,
2013-01-02 06:31:00,28.4,22.7,30.04,NE,44,0.0,0.0,79,0.00,,SKC,0.00,VWS V14.01,2013-01-02 11:31:00,
2013-01-02 06:36:00,28.2,22.2,30.04,NNE,22,0.0,0.0,78,0.00,,SKC,0.00,VWS V14.01,2013-01-02 11:36:00,
2013-01-02 06:41:00,28.1,22.1,30.05,ENE,61,0.0,0.0,78,0.00,,SKC,0.00,VWS V14.01,2013-01-02 11:41:00,
2013-01-02 06:46:00,28.1,22.4,30.05,ENE,61,0.0,0.0,79,0.00,,SKC,0.00,VWS V14.01,2013-01-02 11:46:00,
2013-01-02 06:51:00,28.0,22.0,30.05,ENE,61,0.0,0.0,78,0.00,,SKC,0.00,VWS V14.01,2013-01-02 11:51:00,
2013-01-02 06:56:00,27.9,21.9,30.06,ENE,61,0.0,0.0,78,0.00,,SKC,0.00,VWS V14.01,2013-01-02 11:56:00,
2013-01-02 07:01:00,27.8,21.9,30.06,ENE,61,0.0,0.0,78,0.00,,SKC,0.00,VWS V14.01,2013-01-02 12:01:00,
2013-01-02 07:06:00,27.7,21.8,30.07,ENE,61,0.0,0.0,78,0.00,,SKC,0.00,VWS V14.01,2013-01-02 12:06:00,
2013-01-02 07:11:00,27.6,21.6,30.08,ENE,61,0.0,0.0,78,0.00,,SKC,0.00,VWS V14.01,2013-01-02 12:11:00,
2013-01-02 07:16:00,27.4,21.8,30.08,ENE,61,0.0,0.0,79,0.00,,SKC,0.00,VWS V14.01,2013-01-02 12:16:00,
2013-01-02 07:21:00,27.3,21.4,30.08,NW,323,0.0,0.0,78,0.00,,SKC,0.00,VWS V14.01,2013-01-02 12:21:00,
2013-01-02 07:26:00,27.1,21.2,30.08,WNW,293,0.0,0.0,78,0.00,,SKC,0.00,VWS V14.01,2013-01-02 12:26:00,
2013-01-02 07:31:00,27.0,21.1,30.08,NW,310,0.0,0.0,78,0.00,,SKC,0.00,VWS V14.01,2013-01-02 12:31:00,
2013-01-02 07:36:00,26.8,20.6,30.08,NW,311,0.0,0.0,77,0.00,,SKC,0.00,VWS V14.01,2013-01-02 12:36:00,
2013-01-02 07:41:00,26.7,20.5,30.09,WNW,301,0.0,0.0,77,0.00,,SKC,0.00,VWS V14.01,2013-01-02 12:41:00,
2013-01-02 07:46:00,26.6,20.4,30.09,NNW,346,0.0,0.0,77,0.00,,SKC,0.00,VWS V14.01,2013-01-02 12:46:00,
2013-01-02 07:51:00,26.5,20.3,30.09,NW,309,0.0,0.0,77,0.00,,SKC,0.00,VWS V14.01,2013-01-02 12:51:00,
2013-01-02 07:56:00,26.3,20.1,30.09,NW,309,0.0,0.0,77,0.00,,SKC,0.00,VWS V14.01,2013-01-02 12:56:00,
2013-01-02 08:01:00,26.3,20.1,30.09,WNW,303,0.0,0.0,77,0.00,,SKC,0.00,VWS V14.01,2013-01-02 13:01:00,
2013-01-02 08:06:00,26.2,20.0,30.10,NW,315,0.0,0.0,77,0.00,,SKC,0.00,VWS V14.01,2013-01-02 13:06:00,
2013-01-02 08:11:00,26.1,19.9,30.10,WSW,240,0.0,0.0,77,0.00,,SKC,0.00,VWS V14.01,2013-01-02 13:11:00,
2013-01-02 08:16:00,26.0,19.8,30.10,NNE,33,0.0,0.0,77,0.00,,SKC,0.00,VWS V14.01,2013-01-02 13:16:00,
2013-01-02 08:21:00,25.9,19.7,30.09,WNW,296,0.0,0.0,77,0.00,,SKC,0.00,VWS V14.01,2013-01-02 13:21:00,
2013-01-02 08:26:00,25.8,19.6,30.09,NNE,13,0.0,0.0,77,0.00,,SKC,0.00,VWS V14.01,2013-01-02 13:26:00,
2013-01-02 08:31:00,25.8,19.6,30.09,WSW,250,0.0,0.0,77,0.00,,SKC,0.00,VWS V14.01,2013-01-02 13:31:00,
2013-01-02 08:36:00,25.8,19.6,30.09,WNW,294,0.0,0.0,77,0.00,,SKC,0.00,VWS V14.01,2013-01-02 13:36:00,
2013-01-02 08:41:00,25.8,19.6,30.09,West,280,1.0,1.0,77,0.00,,SKC,0.00,VWS V14.01,2013-01-02 13:41:00,
2013-01-02 08:46:00,25.8,19.6,30.10,NW,305,2.0,2.0,77,0.00,,SKC,0.00,VWS V14.01,2013-01-02 13:46:00,
2013-01-02 08:51:00,26.0,19.8,30.11,NNW,339,0.0,0.0,77,0.00,,SKC,0.00,VWS V14.01,2013-01-02 13:51:00,
2013-01-02 08:56:00,26.2,19.7,30.11,NNE,13,0.0,5.0,76,0.00,,SKC,0.00,VWS V14.01,2013-01-02 13:56:00,
2013-01-02 09:01:00,26.2,19.7,30.11,West,277,3.0,3.0,76,0.00,,SKC,0.00,VWS V14.01,2013-01-02 14:01:00,
2013-01-02 09:06:00,26.2,19.7,30.11,SW,231,8.0,8.0,76,0.00,,SKC,0.00,VWS V14.01,2013-01-02 14:06:00,
2013-01-02 09:11:00,26.3,19.8,30.12,NW,309,0.0,0.0,76,0.00,,SKC,0.00,VWS V14.01,2013-01-02 14:11:00,
2013-01-02 09:16:00,26.3,19.8,30.11,SW,235,2.0,2.0,76,0.00,,SKC,0.00,VWS V14.01,2013-01-02 14:16:00,
2013-01-02 09:21:00,26.3,19.5,30.12,West,277,6.0,6.0,75,0.00,,SKC,0.00,VWS V14.01,2013-01-02 14:21:00,
2013-01-02 09:26:00,26.4,19.2,30.12,WSW,250,0.0,1.0,74,0.00,,SKC,0.00,VWS V14.01,2013-01-02 14:26:00,
2013-01-02 09:31:00,26.5,19.7,30.13,South,169,0.0,0.0,75,0.00,,SKC,0.00,VWS V14.01,2013-01-02 14:31:00,
2013-01-02 09:36:00,26.8,19.6,30.13,West,275,0.0,0.0,74,0.00,,SKC,0.00,VWS V14.01,2013-01-02 14:36:00,
2013-01-02 09:41:00,27.0,19.5,30.14,NNW,337,0.0,0.0,73,0.00,,SKC,0.00,VWS V14.01,2013-01-02 14:41:00,
2013-01-02 09:46:00,27.1,19.3,30.14,NE,34,0.0,0.0,72,0.00,,SKC,0.00,VWS V14.01,2013-01-02 14:46:00,
2013-01-02 09:51:00,27.2,19.4,30.14,North,355,0.0,0.0,72,0.00,,SKC,0.00,VWS V14.01,2013-01-02 14:51:00,
2013-01-02 09:56:00,27.4,19.6,30.13,North,5,1.0,4.0,72,0.00,,SKC,0.00,VWS V14.01,2013-01-02 14:56:00,
2013-01-02 10:01:00,27.5,20.0,30.12,West,277,2.0,2.0,73,0.00,,SKC,0.00,VWS V14.01,2013-01-02 15:01:00,
2013-01-02 10:06:00,27.6,19.8,30.13,NW,304,2.0,4.0,72,0.00,,SKC,0.00,VWS V14.01,2013-01-02 15:06:00,
2013-01-02 10:11:00,27.8,19.6,30.13,WNW,284,0.0,0.0,71,0.00,,SKC,0.00,VWS V14.01,2013-01-02 15:11:00,
2013-01-02 10:16:00,27.8,19.3,30.13,WSW,253,5.0,6.0,70,0.00,,SKC,0.00,VWS V14.01,2013-01-02 15:16:00,
2013-01-02 10:21:00,28.0,19.5,30.13,West,269,0.0,0.0,70,0.00,,SKC,0.00,VWS V14.01,2013-01-02 15:21:00,
2013-01-02 10:26:00,28.1,19.9,30.13,WNW,296,0.0,1.0,71,0.00,,SKC,0.00,VWS V14.01,2013-01-02 15:26:00,
2013-01-02 10:31:00,28.3,19.8,30.13,WNW,290,0.0,0.0,70,0.00,,SKC,0.00,VWS V14.01,2013-01-02 15:31:00,
2013-01-02 10:36:00,28.4,20.5,30.13,NW,318,0.0,2.0,72,0.00,,SKC,0.00,VWS V14.01,2013-01-02 15:36:00,
2013-01-02 10:41:00,28.5,20.0,30.13,WNW,296,0.0,0.0,70,0.00,,SKC,0.00,VWS V14.01,2013-01-02 15:41:00,
2013-01-02 10:46:00,28.6,20.4,30.13,West,276,0.0,0.0,71,0.00,,SKC,0.00,VWS V14.01,2013-01-02 15:46:00,
2013-01-02 10:51:00,28.5,20.0,30.13,North,351,0.0,0.0,70,0.00,,SKC,0.00,VWS V14.01,2013-01-02 15:51:00,
2013-01-02 10:56:00,28.3,19.5,30.13,WSW,258,0.0,0.0,69,0.00,,SKC,0.00,VWS V14.01,2013-01-02 15:56:00,
2013-01-02 11:01:00,28.4,19.5,30.13,West,269,0.0,0.0,69,0.00,,SKC,0.00,VWS V14.01,2013-01-02 16:01:00,
2013-01-02 11:06:00,28.3,19.1,30.13,WSW,240,0.0,0.0,68,0.00,,SKC,0.00,VWS V14.01,2013-01-02 16:06:00,
2013-01-02 11:11:00,28.5,19.3,30.13,North,355,0.0,0.0,68,0.00,,SKC,0.00,VWS V14.01,2013-01-02 16:11:00,
2013-01-02 11:16:00,28.5,19.3,30.12,North,5,2.0,2.0,68,0.00,,SKC,0.00,VWS V14.01,2013-01-02 16:16:00,
2013-01-02 11:21:00,28.5,19.3,30.12,NNE,24,2.0,2.0,68,0.00,,SKC,0.00,VWS V14.01,2013-01-02 16:21:00,
2013-01-02 11:26:00,28.5,19.6,30.12,West,280,0.0,0.0,69,0.00,,SKC,0.00,VWS V14.01,2013-01-02 16:26:00,
2013-01-02 11:31:00,28.6,19.7,30.12,SW,215,1.0,4.0,69,0.00,,SKC,0.00,VWS V14.01,2013-01-02 16:31:00,
2013-01-02 11:36:00,28.7,19.8,30.12,WSW,249,0.0,0.0,69,0.00,,SKC,0.00,VWS V14.01,2013-01-02 16:36:00,
2013-01-02 11:41:00,28.8,20.3,30.12,NW,325,0.0,6.0,70,0.00,,SKC,0.00,VWS V14.01,2013-01-02 16:41:00,
2013-01-02 11:46:00,28.8,19.9,30.12,NNE,19,0.0,0.0,69,0.00,,SKC,0.00,VWS V14.01,2013-01-02 16:46:00,
2013-01-02 11:51:00,28.6,19.4,30.11,SW,220,0.0,9.0,68,0.00,,SKC,0.00,VWS V14.01,2013-01-02 16:51:00,
2013-01-02 11:56:00,28.6,20.1,30.11,West,271,0.0,0.0,70,0.00,,SKC,0.00,VWS V14.01,2013-01-02 16:56:00,
2013-01-02 12:01:00,28.8,20.3,30.11,SW,225,2.0,2.0,70,0.00,,SKC,0.00,VWS V14.01,2013-01-02 17:01:00,
2013-01-02 12:06:00,28.9,20.0,30.11,WNW,293,1.0,1.0,69,0.00,,SKC,0.00,VWS V14.01,2013-01-02 17:06:00,
2013-01-02 12:11:00,28.9,19.7,30.10,West,263,4.0,9.0,68,0.00,,SKC,0.00,VWS V14.01,2013-01-02 17:11:00,
2013-01-02 12:16:00,28.8,19.9,30.11,NW,305,0.0,4.0,69,0.00,,SKC,0.00,VWS V14.01,2013-01-02 17:16:00,
2013-01-02 12:21:00,28.9,19.0,30.11,NNE,18,2.0,2.0,66,0.00,,SKC,0.00,VWS V14.01,2013-01-02 17:21:00,
2013-01-02 12:26:00,29.0,19.8,30.11,NE,51,1.0,5.0,68,0.00,,SKC,0.00,VWS V14.01,2013-01-02 17:26:00,
2013-01-02 12:31:00,29.2,19.3,30.11,WNW,301,0.0,1.0,66,0.00,,SKC,0.00,VWS V14.01,2013-01-02 17:31:00,
2013-01-02 12:36:00,28.8,18.5,30.11,North,360,0.0,1.0,65,0.00,,SKC,0.00,VWS V14.01,2013-01-02 17:36:00,
2013-01-02 12:41:00,28.8,18.2,30.10,North,5,1.0,7.0,64,0.00,,SKC,0.00,VWS V14.01,2013-01-02 17:41:00,
2013-01-02 12:46:00,28.6,18.0,30.10,NNW,346,0.0,3.0,64,0.00,,SKC,0.00,VWS V14.01,2013-01-02 17:46:00,
2013-01-02 12:51:00,28.8,18.9,30.09,WNW,297,2.0,2.0,66,0.00,,SKC,0.00,VWS V14.01,2013-01-02 17:51:00,
2013-01-02 12:56:00,28.8,17.8,30.10,West,269,2.0,7.0,63,0.00,,SKC,0.00,VWS V14.01,2013-01-02 17:56:00,
2013-01-02 13:01:00,29.0,18.7,30.10,West,278,1.0,2.0,65,0.00,,SKC,0.00,VWS V14.01,2013-01-02 18:01:00,
2013-01-02 13:06:00,29.4,18.7,30.10,North,5,0.0,1.0,64,0.00,,SKC,0.00,VWS V14.01,2013-01-02 18:06:00,
2013-01-02 13:11:00,29.6,19.6,30.10,SW,230,0.0,0.0,66,0.00,,SKC,0.00,VWS V14.01,2013-01-02 18:11:00,
2013-01-02 13:16:00,29.5,18.5,30.10,NNE,23,0.0,2.0,63,0.00,,SKC,0.00,VWS V14.01,2013-01-02 18:16:00,
2013-01-02 13:21:00,29.3,19.0,30.10,WNW,284,0.0,0.0,65,0.00,,SKC,0.00,VWS V14.01,2013-01-02 18:21:00,
2013-01-02 13:26:00,29.2,19.3,30.10,North,5,0.0,0.0,66,0.00,,SKC,0.00,VWS V14.01,2013-01-02 18:26:00,
2013-01-02 13:31:00,28.9,19.7,30.10,West,277,0.0,1.0,68,0.00,,SKC,0.00,VWS V14.01,2013-01-02 18:31:00,
2013-01-02 13:36:00,29.0,18.7,30.11,NNW,329,2.0,3.0,65,0.00,,SKC,0.00,VWS V14.01,2013-01-02 18:36:00,
2013-01-02 13:41:00,28.7,18.1,30.11,ENE,62,1.0,3.0,64,0.00,,SKC,0.00,VWS V14.01,2013-01-02 18:41:00,
2013-01-02 13:46:00,28.7,18.1,30.11,North,11,1.0,4.0,64,0.00,,SKC,0.00,VWS V14.01,2013-01-02 18:46:00,
2013-01-02 13:51:00,28.5,17.9,30.11,NNE,30,6.0,6.0,64,0.00,,SKC,0.00,VWS V14.01,2013-01-02 18:51:00,
2013-01-02 13:56:00,28.4,18.1,30.11,North,355,0.0,0.0,65,0.00,,SKC,0.00,VWS V14.01,2013-01-02 18:56:00,
2013-01-02 14:01:00,28.3,18.1,30.11,NE,36,4.0,4.0,65,0.00,,SKC,0.00,VWS V14.01,2013-01-02 19:01:00,
2013-01-02 14:06:00,28.3,18.1,30.11,NNE,14,5.0,7.0,65,0.00,,SKC,0.00,VWS V14.01,2013-01-02 19:06:00,
2013-01-02 14:11:00,28.1,17.5,30.11,North,5,0.0,2.0,64,0.00,,SKC,0.00,VWS V14.01,2013-01-02 19:11:00,
2013-01-02 14:16:00,28.1,17.5,30.11,NNE,28,0.0,5.0,64,0.00,,SKC,0.00,VWS V14.01,2013-01-02 19:16:00,
2013-01-02 14:21:00,28.0,17.4,30.11,North,360,4.0,6.0,64,0.00,,SKC,0.00,VWS V14.01,2013-01-02 19:21:00,
2013-01-02 14:26:00,28.1,17.5,30.11,NE,35,0.0,6.0,64,0.00,,SKC,0.00,VWS V14.01,2013-01-02 19:26:00,
2013-01-02 14:31:00,28.0,16.7,30.11,NNE,24,2.0,4.0,62,0.00,,SKC,0.00,VWS V14.01,2013-01-02 19:31:00,
2013-01-02 14:36:00,27.9,17.0,30.11,NNE,33,2.0,5.0,63,0.00,,SKC,0.00,VWS V14.01,2013-01-02 19:36:00,
2013-01-02 14:41:00,27.9,16.6,30.12,North,11,1.0,1.0,62,0.00,,SKC,0.00,VWS V14.01,2013-01-02 19:41:00,
2013-01-02 14:46:00,27.9,16.6,30.12,North,10,0.0,0.0,62,0.00,,SKC,0.00,VWS V14.01,2013-01-02 19:46:00,
2013-01-02 14:51:00,27.9,17.0,30.12,NNW,340,0.0,0.0,63,0.00,,SKC,0.00,VWS V14.01,2013-01-02 19:51:00,
2013-01-02 14:56:00,27.9,16.6,30.12,North,5,0.0,0.0,62,0.00,,SKC,0.00,VWS V14.01,2013-01-02 19:56:00,
2013-01-02 15:01:00,28.0,16.7,30.12,North,11,2.0,2.0,62,0.00,,SKC,0.00,VWS V14.01,2013-01-02 20:01:00,
2013-01-02 15:06:00,28.0,16.7,30.13,NE,34,1.0,1.0,62,0.00,,SKC,0.00,VWS V14.01,2013-01-02 20:06:00,
2013-01-02 15:11:00,28.0,16.7,30.13,North,9,1.0,2.0,62,0.00,,SKC,0.00,VWS V14.01,2013-01-02 20:11:00,
2013-01-02 15:16:00,28.1,16.4,30.13,North,5,0.0,6.0,61,0.00,,SKC,0.00,VWS V14.01,2013-01-02 20:16:00,
2013-01-02 15:21:00,28.2,16.5,30.13,NE,40,0.0,4.0,61,0.00,,SKC,0.00,VWS V14.01,2013-01-02 20:21:00,
2013-01-02 15:26:00,28.2,16.5,30.13,NE,52,0.0,1.0,61,0.00,,SKC,0.00,VWS V14.01,2013-01-02 20:26:00,
2013-01-02 15:31:00,28.2,16.1,30.14,North,5,6.0,6.0,60,0.00,,SKC,0.00,VWS V14.01,2013-01-02 20:31:00,
2013-01-02 15:36:00,28.2,15.7,30.13,North,360,2.0,4.0,59,0.00,,SKC,0.00,VWS V14.01,2013-01-02 20:36:00,
2013-01-02 15:41:00,28.3,16.2,30.13,NNW,344,0.0,1.0,60,0.00,,SKC,0.00,VWS V14.01,2013-01-02 20:41:00,
2013-01-02 15:46:00,28.3,16.2,30.13,North,11,1.0,1.0,60,0.00,,SKC,0.00,VWS V14.01,2013-01-02 20:46:00,
2013-01-02 15:51:00,28.3,15.8,30.13,North,355,0.0,0.0,59,0.00,,SKC,0.00,VWS V14.01,2013-01-02 20:51:00,
2013-01-02 15:56:00,28.3,15.8,30.13,North,355,0.0,1.0,59,0.00,,SKC,0.00,VWS V14.01,2013-01-02 20:56:00,
2013-01-02 16:01:00,28.2,15.7,30.14,North,351,0.0,1.0,59,0.00,,SKC,0.00,VWS V14.01,2013-01-02 21:01:00,
2013-01-02 16:06:00,28.2,16.1,30.14,NNE,33,0.0,0.0,60,0.00,,SKC,0.00,VWS V14.01,2013-01-02 21:06:00,
2013-01-02 16:11:00,28.1,15.6,30.14,NNW,330,0.0,0.0,59,0.00,,SKC,0.00,VWS V14.01,2013-01-02 21:11:00,
2013-01-02 16:16:00,28.1,15.6,30.14,NNW,330,0.0,0.0,59,0.00,,SKC,0.00,VWS V14.01,2013-01-02 21:16:00,
2013-01-02 16:21:00,28.0,15.9,30.14,NNW,330,0.0,0.0,60,0.00,,SKC,0.00,VWS V14.01,2013-01-02 21:21:00,
2013-01-02 16:26:00,28.0,15.9,30.14,NNW,330,0.0,0.0,60,0.00,,SKC,0.00,VWS V14.01,2013-01-02 21:26:00,
2013-01-02 16:31:00,27.9,15.4,30.14,WNW,284,0.0,4.0,59,0.00,,SKC,0.00,VWS V14.01,2013-01-02 21:31:00,
2013-01-02 16:36:00,27.8,15.4,30.14,WSW,257,0.0,2.0,59,0.00,,SKC,0.00,VWS V14.01,2013-01-02 21:36:00,
2013-01-02 16:41:00,27.6,15.6,30.14,WSW,257,0.0,0.0,60,0.00,,SKC,0.00,VWS V14.01,2013-01-02 21:41:00,
2013-01-02 16:46:00,27.5,15.1,30.14,WNW,291,0.0,0.0,59,0.00,,SKC,0.00,VWS V14.01,2013-01-02 21:46:00,
2013-01-02 16:51:00,27.4,15.0,30.15,WNW,291,0.0,0.0,59,0.00,,SKC,0.00,VWS V14.01,2013-01-02 21:51:00,
2013-01-02 16:56:00,27.2,14.4,30.15,WNW,291,0.0,0.0,58,0.00,,SKC,0.00,VWS V14.01,2013-01-02 21:56:00,
2013-01-02 17:01:00,27.1,14.7,30.15,WNW,291,0.0,0.0,59,0.00,,SKC,0.00,VWS V14.01,2013-01-02 22:01:00,
2013-01-02 17:06:00,27.0,14.2,30.15,WNW,292,0.0,0.0,58,0.00,,SKC,0.00,VWS V14.01,2013-01-02 22:06:00,
2013-01-02 17:11:00,26.8,14.4,30.15,North,9,0.0,0.0,59,0.00,,SKC,0.00,VWS V14.01,2013-01-02 22:11:00,
2013-01-02 17:16:00,26.6,14.6,30.15,North,9,0.0,0.0,60,0.00,,SKC,0.00,VWS V14.01,2013-01-02 22:16:00,
2013-01-02 17:20:00,26.5,14.5,30.16,North,9,0.0,0.0,60,0.00,,SKC,0.00,VWS V14.01,2013-01-02 22:20:00,
2013-01-02 17:25:00,26.2,14.6,30.16,North,9,0.0,0.0,61,0.00,,SKC,0.00,VWS V14.01,2013-01-02 22:25:00,
2013-01-02 17:30:00,26.1,14.5,30.16,North,9,0.0,0.0,61,0.00,,SKC,0.00,VWS V14.01,2013-01-02 22:30:00,
2013-01-02 17:35:00,26.0,14.8,30.16,North,9,0.0,0.0,62,0.00,,SKC,0.00,VWS V14.01,2013-01-02 22:35:00,
2013-01-02 17:40:00,25.8,14.2,30.17,North,9,0.0,0.0,61,0.00,,SKC,0.00,VWS V14.01,2013-01-02 22:40:00,
2013-01-02 17:45:00,25.7,14.5,30.17,North,9,0.0,0.0,62,0.00,,SKC,0.00,VWS V14.01,2013-01-02 22:45:00,
2013-01-02 17:50:00,25.6,14.8,30.17,North,9,0.0,0.0,63,0.00,,SKC,0.00,VWS V14.01,2013-01-02 22:50:00,
2013-01-02 17:55:00,25.4,14.6,30.18,North,9,0.0,0.0,63,0.00,,SKC,0.00,VWS V14.01,2013-01-02 22:55:00,
2013-01-02 18:00:00,25.3,14.8,30.18,North,9,0.0,0.0,64,0.00,,SKC,0.00,VWS V14.01,2013-01-02 23:00:00,
2013-01-02 18:05:00,25.2,14.4,30.18,North,9,0.0,0.0,63,0.00,,SKC,0.00,VWS V14.01,2013-01-02 23:05:00,
2013-01-02 18:10:00,25.1,14.3,30.18,North,9,0.0,0.0,63,0.00,,SKC,0.00,VWS V14.01,2013-01-02 23:10:00,
2013-01-02 18:15:00,25.0,14.2,30.19,North,9,0.0,0.0,63,0.00,,SKC,0.00,VWS V14.01,2013-01-02 23:15:00,
2013-01-02 18:20:00,24.9,14.5,30.19,North,9,0.0,0.0,64,0.00,,SKC,0.00,VWS V14.01,2013-01-02 23:20:00,
2013-01-02 18:25:00,24.7,14.6,30.18,North,9,0.0,0.0,65,0.00,,SKC,0.00,VWS V14.01,2013-01-02 23:25:00,
2013-01-02 18:30:00,24.6,14.9,30.18,North,9,0.0,0.0,66,0.00,,SKC,0.00,VWS V14.01,2013-01-02 23:30:00,
2013-01-02 18:35:00,24.5,14.8,30.18,North,9,0.0,1.0,66,0.00,,SKC,0.00,VWS V14.01,2013-01-02 23:35:00,
2013-01-02 18:40:00,24.4,15.0,30.18,NNE,20,0.0,0.0,67,0.00,,SKC,0.00,VWS V14.01,2013-01-02 23:40:00,
2013-01-02 18:45:00,24.4,15.0,30.19,NNE,20,0.0,0.0,67,0.00,,SKC,0.00,VWS V14.01,2013-01-02 23:45:00,
2013-01-02 18:50:00,24.3,15.3,30.19,NNE,20,0.0,0.0,68,0.00,,SKC,0.00,VWS V14.01,2013-01-02 23:50:00,
2013-01-02 18:55:00,24.3,14.9,30.19,NNE,20,0.0,0.0,67,0.00,,SKC,0.00,VWS V14.01,2013-01-02 23:55:00,
2013-01-02 19:00:00,24.3,15.6,30.19,NNE,20,0.0,0.0,69,0.00,,SKC,0.00,VWS V14.01,2013-01-03 00:00:00,
2013-01-02 19:05:00,24.2,15.5,30.19,NNE,20,0.0,0.0,69,0.00,,SKC,0.00,VWS V14.01,2013-01-03 00:05:00,
2013-01-02 19:10:00,24.2,15.5,30.19,NNE,20,0.0,0.0,69,0.00,,SKC,0.00,VWS V14.01,2013-01-03 00:10:00,
2013-01-02 19:15:00,24.2,15.2,30.20,NNE,20,0.0,0.0,68,0.00,,SKC,0.00,VWS V14.01,2013-01-03 00:15:00,
2013-01-02 19:20:00,24.2,15.5,30.19,NNE,20,0.0,0.0,69,0.00,,SKC,0.00,VWS V14.01,2013-01-03 00:20:00,
2013-01-02 19:25:00,24.1,15.4,30.20,NNE,26,1.0,2.0,69,0.00,,SKC,0.00,VWS V14.01,2013-01-03 00:25:00,
2013-01-02 19:30:00,24.1,15.4,30.20,ENE,58,1.0,1.0,69,0.00,,SKC,0.00,VWS V14.01,2013-01-03 00:30:00,
2013-01-02 19:35:00,24.1,15.8,30.20,NE,51,0.0,0.0,70,0.00,,SKC,0.00,VWS V14.01,2013-01-03 00:35:00,
2013-01-02 19:40:00,24.2,15.5,30.19,NE,51,0.0,0.0,69,0.00,,SKC,0.00,VWS V14.01,2013-01-03 00:40:00,
2013-01-02 19:45:00,24.1,15.1,30.19,NE,51,0.0,0.0,68,0.00,,SKC,0.00,VWS V14.01,2013-01-03 00:45:00,
2013-01-02 19:50:00,24.2,15.5,30.19,NE,51,0.0,0.0,69,0.00,,SKC,0.00,VWS V14.01,2013-01-03 00:50:00,
2013-01-02 19:55:00,24.2,15.8,30.19,NE,51,0.0,1.0,70,0.00,,SKC,0.00,VWS V14.01,2013-01-03 00:55:00,
2013-01-02 20:00:00,24.2,15.5,30.19,NE,56,0.0,0.0,69,0.00,,SKC,0.00,VWS V14.01,2013-01-03 01:00:00,
2013-01-02 20:05:00,24.2,15.5,30.19,NE,49,0.0,0.0,69,0.00,,SKC,0.00,VWS V14.01,2013-01-03 01:05:00,
2013-01-02 20:10:00,24.2,15.5,30.20,NE,49,0.0,0.0,69,0.00,,SKC,0.00,VWS V14.01,2013-01-03 01:10:00,
2013-01-02 20:15:00,24.2,15.5,30.20,NE,49,0.0,0.0,69,0.00,,SKC,0.00,VWS V14.01,2013-01-03 01:15:00,
2013-01-02 20:20:00,24.3,15.6,30.19,NE,49,0.0,0.0,69,0.00,,SKC,0.00,VWS V14.01,2013-01-03 01:20:00,
2013-01-02 20:25:00,24.2,15.5,30.19,NE,37,1.0,1.0,69,0.00,,SKC,0.00,VWS V14.01,2013-01-03 01:25:00,
2013-01-02 20:30:00,24.2,15.5,30.19,NE,37,0.0,0.0,69,0.00,,SKC,0.00,VWS V14.01,2013-01-03 01:30:00,
2013-01-02 20:35:00,24.2,14.8,30.20,NE,37,0.0,1.0,67,0.00,,SKC,0.00,VWS V14.01,2013-01-03 01:35:00,
2013-01-02 20:40:00,24.3,14.9,30.20,NE,37,0.0,0.0,67,0.00,,SKC,0.00,VWS V14.01,2013-01-03 01:40:00,
2013-01-02 20:45:00,24.4,15.7,30.20,NE,37,0.0,0.0,69,0.00,,SKC,0.00,VWS V14.01,2013-01-03 01:45:00,
2013-01-02 20:50:00,24.4,15.7,30.20,NE,37,0.0,0.0,69,0.00,,SKC,0.00,VWS V14.01,2013-01-03 01:50:00,
2013-01-02 20:55:00,24.4,15.7,30.20,NE,37,0.0,0.0,69,0.00,,SKC,0.00,VWS V14.01,2013-01-03 01:55:00,
2013-01-02 21:00:00,24.4,15.7,30.21,NE,37,0.0,0.0,69,0.00,,SKC,0.00,VWS V14.01,2013-01-03 02:00:00,
2013-01-02 21:05:00,24.3,15.3,30.21,NE,37,0.0,0.0,68,0.00,,SKC,0.00,VWS V14.01,2013-01-03 02:05:00,
2013-01-02 21:10:00,24.3,15.3,30.21,NE,37,0.0,0.0,68,0.00,,SKC,0.00,VWS V14.01,2013-01-03 02:10:00,
2013-01-02 21:15:00,24.3,14.9,30.21,NE,37,0.0,0.0,67,0.00,,SKC,0.00,VWS V14.01,2013-01-03 02:15:00,
2013-01-02 21:20:00,24.3,15.3,30.21,NE,37,0.0,0.0,68,0.00,,SKC,0.00,VWS V14.01,2013-01-03 02:20:00,
2013-01-02 21:25:00,24.3,15.3,30.21,NE,37,0.0,0.0,68,0.00,,SKC,0.00,VWS V14.01,2013-01-03 02:25:00,
2013-01-02 21:30:00,24.3,14.9,30.21,NE,37,0.0,0.0,67,0.00,,SKC,0.00,VWS V14.01,2013-01-03 02:30:00,
2013-01-02 21:35:00,24.3,14.9,30.21,NE,37,0.0,0.0,67,0.00,,SKC,0.00,VWS V14.01,2013-01-03 02:35:00,
2013-01-02 21:40:00,24.3,15.3,30.21,NE,37,0.0,0.0,68,0.00,,SKC,0.00,VWS V14.01,2013-01-03 02:40:00,
2013-01-02 21:45:00,24.3,14.9,30.22,NE,37,0.0,0.0,67,0.00,,SKC,0.00,VWS V14.01,2013-01-03 02:45:00,
2013-01-02 21:50:00,24.3,14.6,30.22,NE,37,0.0,0.0,66,0.00,,SKC,0.00,VWS V14.01,2013-01-03 02:50:00,
2013-01-02 21:55:00,24.3,14.6,30.22,NE,37,0.0,0.0,66,0.00,,SKC,0.00,VWS V14.01,2013-01-03 02:55:00,
2013-01-02 22:00:00,24.3,14.6,30.22,NE,37,0.0,0.0,66,0.00,,SKC,0.00,VWS V14.01,2013-01-03 03:00:00,
2013-01-02 22:05:00,24.2,14.8,30.22,NE,37,0.0,0.0,67,0.00,,SKC,0.00,VWS V14.01,2013-01-03 03:05:00,
2013-01-02 22:10:00,24.2,14.8,30.22,NE,37,0.0,0.0,67,0.00,,SKC,0.00,VWS V14.01,2013-01-03 03:10:00,
2013-01-02 22:15:00,24.2,15.2,30.22,NE,37,0.0,0.0,68,0.00,,SKC,0.00,VWS V14.01,2013-01-03 03:15:00,
2013-01-02 22:20:00,24.1,14.7,30.22,NE,37,0.0,0.0,67,0.00,,SKC,0.00,VWS V14.01,2013-01-03 03:20:00,
2013-01-02 22:25:00,24.1,14.7,30.22,NE,37,0.0,0.0,67,0.00,,SKC,0.00,VWS V14.01,2013-01-03 03:25:00,
2013-01-02 22:30:00,24.0,14.6,30.22,NE,37,0.0,0.0,67,0.00,,SKC,0.00,VWS V14.01,2013-01-03 03:30:00,
2013-01-02 22:36:00,24.0,14.6,30.22,NE,37,0.0,0.0,67,0.00,,SKC,0.00,VWS V14.01,2013-01-03 03:36:00,
2013-01-02 22:41:00,23.9,14.6,30.22,NE,37,0.0,0.0,67,0.00,,SKC,0.00,VWS V14.01,2013-01-03 03:41:00,
2013-01-02 22:46:00,23.9,14.6,30.22,NE,37,0.0,0.0,67,0.00,,SKC,0.00,VWS V14.01,2013-01-03 03:46:00,
2013-01-02 22:51:00,23.9,14.2,30.22,NE,37,0.0,0.0,66,0.00,,SKC,0.00,VWS V14.01,2013-01-03 03:51:00,
2013-01-02 22:56:00,23.8,14.1,30.21,NE,37,0.0,1.0,66,0.00,,SKC,0.00,VWS V14.01,2013-01-03 03:56:00,
2013-01-02 23:01:00,23.7,13.7,30.21,NE,37,0.0,0.0,65,0.00,,SKC,0.00,VWS V14.01,2013-01-03 04:01:00,
2013-01-02 23:06:00,23.7,13.7,30.21,NE,37,0.0,0.0,65,0.00,,SKC,0.00,VWS V14.01,2013-01-03 04:06:00,
2013-01-02 23:11:00,23.6,13.9,30.21,NE,37,0.0,0.0,66,0.00,,SKC,0.00,VWS V14.01,2013-01-03 04:11:00,
2013-01-02 23:16:00,23.6,13.9,30.21,NE,37,0.0,0.0,66,0.00,,SKC,0.00,VWS V14.01,2013-01-03 04:16:00,
2013-01-02 23:21:00,23.5,13.8,30.22,NE,37,0.0,0.0,66,0.00,,SKC,0.00,VWS V14.01,2013-01-03 04:21:00,
2013-01-02 23:26:00,23.5,13.8,30.21,NE,37,0.0,0.0,66,0.00,,SKC,0.00,VWS V14.01,2013-01-03 04:26:00,
2013-01-02 23:31:00,23.5,13.8,30.22,NE,37,0.0,0.0,66,0.00,,SKC,0.00,VWS V14.01,2013-01-03 04:31:00,
2013-01-02 23:36:00,23.4,13.7,30.22,NE,37,0.0,0.0,66,0.00,,SKC,0.00,VWS V14.01,2013-01-03 04:36:00,
2013-01-02 23:41:00,23.4,14.1,30.22,NE,37,0.0,0.0,67,0.00,,SKC,0.00,VWS V14.01,2013-01-03 04:41:00,
2013-01-02 23:46:00,23.4,13.7,30.22,NE,37,0.0,0.0,66,0.00,,SKC,0.00,VWS V14.01,2013-01-03 04:46:00,
2013-01-02 23:51:00,23.4,14.1,30.22,NE,37,0.0,0.0,67,0.00,,SKC,0.00,VWS V14.01,2013-01-03 04:51:00,
2013-01-02 23:56:00,23.4,14.1,30.21,NE,37,0.0,0.0,67,0.00,,SKC,0.00,VWS V14.01,2013-01-03 04:56:00,